createdAt,value
2022-08-26T00:00:29.077Z,8.70
2022-08-26T00:01:31.976Z,9.27
2022-08-26T00:02:35.064Z,8.32
2022-08-26T00:03:37.330Z,9.10
2022-08-26T00:04:40.353Z,8.98
2022-08-26T00:05:43.592Z,9.32
2022-08-26T00:06:46.560Z,8.50
2022-08-26T00:07:49.683Z,8.43
2022-08-26T00:08:54.644Z,7.95
2022-08-26T00:09:56.537Z,9.90
2022-08-26T00:10:59.956Z,9.90
2022-08-26T00:12:03.431Z,8.80
2022-08-26T00:13:07.833Z,9.48
2022-08-26T00:14:12.235Z,8.70
2022-08-26T00:15:16.489Z,9.65
2022-08-26T00:16:19.665Z,9.15
2022-08-26T00:17:21.994Z,9.30
2022-08-26T00:18:25.127Z,10.63
2022-08-26T00:19:28.123Z,8.88
2022-08-26T00:20:33.557Z,10.30
2022-08-26T00:21:35.777Z,9.80
2022-08-26T00:22:40.527Z,9.75
2022-08-26T00:23:42.524Z,9.25
2022-08-26T00:24:48.066Z,9.82
2022-08-26T00:25:50.252Z,9.25
2022-08-26T00:26:53.243Z,9.02
2022-08-26T00:27:55.137Z,10.65
2022-08-26T00:29:00.420Z,9.55
2022-08-26T00:30:04.039Z,10.05
2022-08-26T00:31:07.121Z,10.50
2022-08-26T00:32:09.125Z,9.13
2022-08-26T00:33:14.742Z,8.95
2022-08-26T00:34:16.875Z,9.35
2022-08-26T00:35:23.741Z,8.68
2022-08-26T00:36:25.832Z,9.55
2022-08-26T00:37:33.330Z,10.10
2022-08-26T00:38:37.911Z,10.75
2022-08-26T00:39:42.179Z,9.38
2022-08-26T00:40:47.123Z,8.80
2022-08-26T00:41:50.529Z,8.50
2022-08-26T00:42:52.714Z,11.85
2022-08-26T00:43:55.812Z,10.00
2022-08-26T00:45:00.730Z,10.07
2022-08-26T00:46:09.413Z,9.18
2022-08-26T00:47:21.610Z,10.00
2022-08-26T00:48:27.236Z,9.13
2022-08-26T00:49:37.870Z,9.30
2022-08-26T00:50:49.179Z,10.60
2022-08-26T00:51:55.702Z,10.70
2022-08-26T00:52:59.881Z,9.48
2022-08-26T00:54:06.368Z,9.35
2022-08-26T00:55:12.112Z,9.23
2022-08-26T00:56:28.935Z,8.82
2022-08-26T00:57:32.104Z,8.98
2022-08-26T00:58:37.955Z,8.63
2022-08-26T00:59:45.212Z,9.35
2022-08-26T01:00:49.680Z,10.25
2022-08-26T01:01:52.037Z,9.98
2022-08-26T01:02:56.579Z,9.35
2022-08-26T01:04:00.876Z,10.02
2022-08-26T01:05:05.947Z,9.02
2022-08-26T01:06:12.599Z,10.05
2022-08-26T01:07:16.479Z,7.95
2022-08-26T01:08:18.484Z,10.02
2022-08-26T01:09:23.650Z,9.63
2022-08-26T01:10:29.780Z,9.98
2022-08-26T01:11:34.052Z,9.23
2022-08-26T01:12:41.018Z,9.55
2022-08-26T01:13:44.056Z,9.70
2022-08-26T01:14:47.380Z,9.73
2022-08-26T01:15:57.155Z,9.70
2022-08-26T01:17:02.149Z,9.93
2022-08-26T01:18:08.893Z,9.07
2022-08-26T01:19:19.126Z,9.38
2022-08-26T01:20:30.084Z,10.38
2022-08-26T01:21:40.543Z,9.15
2022-08-26T01:22:54.488Z,9.27
2022-08-26T01:23:58.481Z,9.27
2022-08-26T01:25:03.413Z,9.80
2022-08-26T01:26:19.392Z,10.57
2022-08-26T01:27:23.445Z,8.60
2022-08-26T01:28:32.062Z,8.80
2022-08-26T01:29:37.509Z,9.50
2022-08-26T01:30:41.489Z,9.40
2022-08-26T01:31:47.208Z,9.10
2022-08-26T01:32:50.638Z,10.45
2022-08-26T01:34:06.836Z,8.77
2022-08-26T01:35:11.409Z,7.75
2022-08-26T01:36:15.204Z,9.02
2022-08-26T01:37:22.155Z,10.27
2022-08-26T01:38:27.779Z,9.23
2022-08-26T01:39:35.740Z,9.05
2022-08-26T01:40:42.195Z,8.80
2022-08-26T01:41:45.747Z,9.90
2022-08-26T01:42:50.125Z,8.82
2022-08-26T01:43:55.840Z,8.90
2022-08-26T01:45:02.308Z,10.25
2022-08-26T01:46:04.971Z,9.18
2022-08-26T01:47:10.567Z,10.00
2022-08-26T01:48:15.949Z,10.40
2022-08-26T01:49:19.837Z,9.48
2022-08-26T01:50:27.542Z,9.80
2022-08-26T01:51:32.146Z,9.50
2022-08-26T01:52:38.521Z,9.52
2022-08-26T01:53:43.585Z,9.55
2022-08-26T01:54:50.460Z,8.52
2022-08-26T01:55:58.207Z,8.20
2022-08-26T01:57:02.074Z,9.75
2022-08-26T01:58:09.897Z,9.00
2022-08-26T01:59:16.826Z,10.15
2022-08-26T02:00:20.308Z,9.70
2022-08-26T02:01:24.122Z,8.40
2022-08-26T02:02:32.243Z,8.52
2022-08-26T02:03:38.600Z,8.60
2022-08-26T02:04:49.955Z,8.98
2022-08-26T02:05:58.428Z,9.70
2022-08-26T02:07:05.352Z,8.70
2022-08-26T02:08:08.489Z,10.27
2022-08-26T02:09:13.637Z,9.40
2022-08-26T02:10:17.093Z,8.75
2022-08-26T02:11:23.241Z,9.15
2022-08-26T02:12:28.313Z,8.45
2022-08-26T02:13:33.228Z,10.25
2022-08-26T02:14:43.517Z,9.38
2022-08-26T02:15:46.767Z,9.75
2022-08-26T02:16:52.952Z,8.52
2022-08-26T02:17:55.866Z,9.55
2022-08-26T02:19:02.384Z,8.25
2022-08-26T02:20:06.829Z,9.18
2022-08-26T02:21:17.735Z,9.55
2022-08-26T02:22:22.940Z,8.95
2022-08-26T02:23:27.910Z,8.77
2022-08-26T02:24:48.132Z,9.38
2022-08-26T02:25:55.768Z,9.13
2022-08-26T02:26:59.559Z,8.50
2022-08-26T02:28:01.719Z,9.15
2022-08-26T02:29:10.888Z,9.57
2022-08-26T02:30:18.256Z,8.38
2022-08-26T02:31:21.240Z,8.52
2022-08-26T02:32:24.810Z,9.13
2022-08-26T02:33:29.335Z,8.82
2022-08-26T02:34:32.914Z,9.45
2022-08-26T02:35:37.269Z,8.98
2022-08-26T02:36:39.959Z,9.40
2022-08-26T02:37:43.082Z,8.30
2022-08-26T02:38:45.231Z,8.20
2022-08-26T02:39:50.768Z,10.73
2022-08-26T02:40:54.599Z,8.23
2022-08-26T02:41:57.776Z,8.60
2022-08-26T02:43:00.275Z,8.82
2022-08-26T02:44:07.135Z,8.93
2022-08-26T02:45:10.876Z,8.65
2022-08-26T02:46:23.091Z,7.88
2022-08-26T02:47:32.728Z,8.65
2022-08-26T02:48:35.796Z,8.32
2022-08-26T02:49:38.108Z,7.70
2022-08-26T02:50:42.020Z,9.30
2022-08-26T02:51:44.616Z,8.48
2022-08-26T02:52:48.305Z,9.18
2022-08-26T02:53:50.284Z,9.15
2022-08-26T02:54:55.586Z,9.55
2022-08-26T02:55:57.729Z,10.43
2022-08-26T02:57:03.228Z,9.70
2022-08-26T02:58:05.395Z,8.73
2022-08-26T02:59:08.473Z,9.63
2022-08-26T03:00:14.513Z,10.00
2022-08-26T03:01:23.028Z,9.10
2022-08-26T03:02:51.457Z,9.43
2022-08-26T03:03:55.003Z,9.98
2022-08-26T03:05:01.879Z,9.00
2022-08-26T03:06:05.660Z,10.20
2022-08-26T03:07:07.785Z,9.95
2022-08-26T03:08:11.781Z,10.88
2022-08-26T03:09:15.980Z,9.40
2022-08-26T03:10:23.231Z,9.10
2022-08-26T03:11:32.395Z,9.75
2022-08-26T03:12:36.174Z,9.32
2022-08-26T03:13:38.353Z,10.75
2022-08-26T03:14:41.626Z,9.73
2022-08-26T03:15:43.595Z,9.52
2022-08-26T03:16:50.886Z,9.30
2022-08-26T03:17:52.824Z,9.40
2022-08-26T03:18:55.773Z,9.18
2022-08-26T03:19:58.007Z,10.20
2022-08-26T03:21:06.803Z,11.68
2022-08-26T03:22:08.730Z,9.30
2022-08-26T03:23:12.023Z,9.93
2022-08-26T03:24:14.735Z,9.27
2022-08-26T03:25:18.231Z,9.90
2022-08-26T03:26:22.051Z,9.55
2022-08-26T03:27:25.120Z,9.00
2022-08-26T03:28:27.398Z,9.93
2022-08-26T03:29:53.666Z,9.38
2022-08-26T03:30:57.969Z,8.52
2022-08-26T03:32:00.400Z,10.15
2022-08-26T03:33:03.469Z,9.60
2022-08-26T03:34:06.310Z,9.23
2022-08-26T03:35:09.456Z,9.55
2022-08-26T03:36:12.584Z,10.82
2022-08-26T03:37:14.825Z,10.23
2022-08-26T03:38:17.764Z,9.45
2022-08-26T03:39:19.902Z,10.68
2022-08-26T03:40:23.483Z,9.43
2022-08-26T03:41:27.145Z,10.43
2022-08-26T03:42:30.224Z,9.80
2022-08-26T03:43:32.134Z,9.18
2022-08-26T03:44:35.483Z,9.20
2022-08-26T03:45:37.710Z,9.30
2022-08-26T03:46:41.860Z,10.15
2022-08-26T03:47:47.520Z,9.73
2022-08-26T03:48:50.553Z,9.98
2022-08-26T03:49:52.626Z,10.27
2022-08-26T03:50:56.773Z,9.52
2022-08-26T03:51:59.654Z,9.27
2022-08-26T03:53:03.260Z,10.57
2022-08-26T03:54:06.835Z,9.77
2022-08-26T03:55:12.064Z,9.98
2022-08-26T03:56:14.873Z,9.45
2022-08-26T03:57:19.492Z,8.98
2022-08-26T03:58:24.152Z,10.13
2022-08-26T03:59:27.806Z,9.80
2022-08-26T04:00:30.366Z,10.15
2022-08-26T04:01:33.527Z,9.43
2022-08-26T04:02:35.710Z,9.60
2022-08-26T04:03:56.580Z,10.55
2022-08-26T04:05:01.203Z,9.50
2022-08-26T04:06:03.820Z,9.35
2022-08-26T04:07:07.034Z,9.65
2022-08-26T04:08:10.114Z,9.60
2022-08-26T04:09:15.474Z,9.45
2022-08-26T04:10:20.116Z,10.65
2022-08-26T04:11:27.556Z,9.50
2022-08-26T04:12:31.036Z,9.13
2022-08-26T04:13:34.332Z,10.80
2022-08-26T04:14:38.190Z,9.00
2022-08-26T04:15:42.009Z,10.65
2022-08-26T04:16:45.645Z,9.25
2022-08-26T04:17:49.176Z,9.43
2022-08-26T04:18:51.766Z,9.40
2022-08-26T04:19:55.019Z,9.15
2022-08-26T04:20:57.070Z,10.10
2022-08-26T04:22:02.679Z,10.23
2022-08-26T04:23:04.967Z,10.40
2022-08-26T04:24:11.909Z,8.95
2022-08-26T04:25:15.304Z,8.95
2022-08-26T04:26:19.732Z,9.90
2022-08-26T04:27:23.152Z,10.45
2022-08-26T04:28:26.786Z,9.35
2022-08-26T04:29:29.879Z,9.00
2022-08-26T04:30:32.414Z,9.20
2022-08-26T04:31:38.247Z,10.00
2022-08-26T04:32:40.213Z,9.50
2022-08-26T04:33:47.701Z,10.00
2022-08-26T04:34:51.794Z,9.80
2022-08-26T04:36:02.003Z,10.50
2022-08-26T04:37:04.848Z,10.00
2022-08-26T04:38:08.736Z,10.40
2022-08-26T04:39:12.461Z,9.77
2022-08-26T04:40:15.576Z,9.30
2022-08-26T04:41:18.394Z,9.07
2022-08-26T04:42:23.297Z,10.05
2022-08-26T04:43:30.604Z,10.05
2022-08-26T04:44:36.805Z,9.55
2022-08-26T04:45:40.447Z,10.38
2022-08-26T04:46:44.194Z,10.30
2022-08-26T04:47:47.540Z,9.75
2022-08-26T04:48:52.327Z,9.68
2022-08-26T04:49:56.131Z,9.52
2022-08-26T04:51:01.342Z,9.32
2022-08-26T04:52:03.942Z,9.85
2022-08-26T04:53:08.008Z,9.75
2022-08-26T04:54:10.250Z,10.65
2022-08-26T04:55:14.494Z,9.00
2022-08-26T04:56:16.630Z,11.10
2022-08-26T04:57:20.068Z,9.15
2022-08-26T04:58:24.482Z,10.15
2022-08-26T04:59:29.777Z,10.13
2022-08-26T05:00:31.689Z,10.07
2022-08-26T05:01:39.501Z,8.95
2022-08-26T05:02:43.309Z,9.95
2022-08-26T05:03:46.434Z,10.18
2022-08-26T05:04:48.385Z,9.35
2022-08-26T05:05:55.278Z,10.02
2022-08-26T05:07:02.705Z,10.50
2022-08-26T05:08:06.093Z,10.82
2022-08-26T05:09:08.243Z,10.45
2022-08-26T05:10:11.387Z,10.40
2022-08-26T05:11:13.601Z,10.15
2022-08-26T05:12:16.399Z,11.70
2022-08-26T05:13:20.830Z,9.35
2022-08-26T05:14:23.883Z,9.80
2022-08-26T05:15:27.275Z,10.55
2022-08-26T05:16:30.392Z,9.80
2022-08-26T05:17:33.355Z,9.40
2022-08-26T05:18:36.826Z,9.40
2022-08-26T05:19:42.856Z,10.75
2022-08-26T05:20:48.252Z,10.15
2022-08-26T05:21:51.179Z,10.60
2022-08-26T05:22:53.082Z,10.43
2022-08-26T05:23:56.961Z,9.15
2022-08-26T05:24:58.864Z,10.25
2022-08-26T05:26:02.062Z,11.13
2022-08-26T05:27:07.513Z,10.07
2022-08-26T05:28:16.980Z,8.70
2022-08-26T05:29:19.915Z,10.25
2022-08-26T05:30:21.883Z,10.70
2022-08-26T05:31:28.259Z,9.75
2022-08-26T05:32:31.905Z,10.38
2022-08-26T05:33:34.237Z,9.95
2022-08-26T05:34:38.398Z,10.85
2022-08-26T05:35:40.760Z,10.10
2022-08-26T05:36:44.358Z,10.52
2022-08-26T05:37:46.515Z,9.60
2022-08-26T05:38:50.533Z,11.50
2022-08-26T05:39:52.806Z,10.68
2022-08-26T05:40:56.316Z,10.70
2022-08-26T05:41:58.542Z,9.60
2022-08-26T05:43:03.465Z,11.57
2022-08-26T05:44:09.826Z,10.18
2022-08-26T05:45:12.954Z,8.82
2022-08-26T05:46:16.291Z,10.20
2022-08-26T05:47:20.999Z,9.85
2022-08-26T05:48:24.371Z,9.95
2022-08-26T05:49:27.604Z,10.65
2022-08-26T05:50:29.824Z,9.95
2022-08-26T05:51:34.153Z,10.60
2022-08-26T05:52:36.491Z,8.48
2022-08-26T05:53:43.805Z,10.68
2022-08-26T05:54:55.103Z,10.00
2022-08-26T05:55:58.664Z,11.27
2022-08-26T05:57:01.704Z,10.82
2022-08-26T05:58:05.183Z,10.98
2022-08-26T05:59:14.113Z,11.20
2022-08-26T06:00:17.898Z,9.88
2022-08-26T06:01:23.777Z,10.07
2022-08-26T06:02:28.739Z,9.63
2022-08-26T06:03:31.782Z,9.77
2022-08-26T06:04:35.080Z,11.38
2022-08-26T06:05:39.452Z,11.10
2022-08-26T06:06:43.133Z,10.35
2022-08-26T06:08:05.849Z,10.38
2022-08-26T06:09:11.590Z,10.48
2022-08-26T06:10:32.374Z,11.05
2022-08-26T06:11:36.593Z,10.55
2022-08-26T06:12:38.537Z,10.05
2022-08-26T06:13:42.637Z,11.45
2022-08-26T06:14:45.664Z,11.48
2022-08-26T06:15:51.732Z,11.23
2022-08-26T06:16:55.202Z,11.02
2022-08-26T06:17:58.599Z,8.73
2022-08-26T06:19:03.834Z,10.30
2022-08-26T06:20:14.339Z,9.00
2022-08-26T06:21:22.192Z,10.43
2022-08-26T06:22:48.230Z,11.90
2022-08-26T06:24:11.248Z,11.43
2022-08-26T06:25:32.195Z,10.27
2022-08-26T06:26:35.788Z,10.98
2022-08-26T06:27:38.561Z,10.60
2022-08-26T06:28:43.490Z,10.15
2022-08-26T06:29:47.094Z,9.57
2022-08-26T06:30:49.007Z,10.15
2022-08-26T06:31:52.175Z,10.10
2022-08-26T06:32:54.272Z,11.55
2022-08-26T06:33:59.371Z,9.57
2022-08-26T06:35:02.637Z,10.55
2022-08-26T06:36:06.608Z,9.15
2022-08-26T06:37:09.755Z,9.88
2022-08-26T06:38:13.945Z,10.70
2022-08-26T06:39:19.235Z,10.40
2022-08-26T06:40:23.310Z,9.73
2022-08-26T06:41:26.392Z,9.90
2022-08-26T06:42:28.338Z,9.73
2022-08-26T06:43:31.529Z,11.32
2022-08-26T06:44:35.461Z,11.02
2022-08-26T06:45:39.743Z,10.85
2022-08-26T06:46:45.857Z,9.35
2022-08-26T06:47:52.860Z,9.93
2022-08-26T06:48:58.129Z,10.07
2022-08-26T06:50:01.468Z,10.55
2022-08-26T06:51:07.549Z,10.32
2022-08-26T06:52:10.871Z,9.10
2022-08-26T06:53:14.280Z,9.40
2022-08-26T06:54:17.156Z,10.18
2022-08-26T06:55:19.417Z,10.32
2022-08-26T06:56:24.493Z,10.65
2022-08-26T06:57:26.419Z,9.45
2022-08-26T06:58:29.350Z,10.13
2022-08-26T06:59:31.313Z,9.93
2022-08-26T07:00:34.918Z,9.00
2022-08-26T07:01:43.088Z,9.80
2022-08-26T07:02:46.054Z,10.50
2022-08-26T07:03:52.899Z,9.88
2022-08-26T07:04:56.792Z,9.52
2022-08-26T07:06:04.737Z,9.68
2022-08-26T07:07:07.230Z,9.35
2022-08-26T07:08:12.677Z,10.15
2022-08-26T07:09:15.379Z,9.40
2022-08-26T07:10:18.740Z,9.32
2022-08-26T07:11:20.827Z,8.52
2022-08-26T07:12:23.769Z,9.00
2022-08-26T07:13:30.593Z,10.27
2022-08-26T07:14:35.434Z,9.32
2022-08-26T07:15:41.139Z,8.50
2022-08-26T07:16:44.197Z,8.07
2022-08-26T07:17:47.147Z,8.00
2022-08-26T07:18:53.081Z,8.75
2022-08-26T07:19:56.016Z,8.02
2022-08-26T07:20:59.709Z,8.63
2022-08-26T07:22:07.345Z,8.88
2022-08-26T07:23:11.831Z,8.35
2022-08-26T07:24:14.940Z,8.30
2022-08-26T07:25:19.363Z,8.98
2022-08-26T07:26:28.580Z,8.15
2022-08-26T07:27:31.668Z,8.70
2022-08-26T07:28:35.779Z,8.35
2022-08-26T07:29:41.205Z,9.25
2022-08-26T07:30:44.182Z,8.15
2022-08-26T07:31:46.283Z,8.50
2022-08-26T07:32:49.739Z,8.00
2022-08-26T07:33:52.106Z,8.80
2022-08-26T07:34:55.215Z,8.63
2022-08-26T07:35:58.322Z,8.40
2022-08-26T07:37:04.902Z,8.20
2022-08-26T07:38:12.171Z,7.75
2022-08-26T07:39:14.883Z,8.13
2022-08-26T07:40:18.202Z,9.48
2022-08-26T07:41:22.871Z,8.13
2022-08-26T07:42:26.071Z,8.27
2022-08-26T07:43:29.357Z,7.97
2022-08-26T07:44:32.571Z,8.30
2022-08-26T07:45:35.650Z,7.90
2022-08-26T07:46:38.734Z,8.40
2022-08-26T07:47:41.755Z,7.63
2022-08-26T07:48:46.150Z,8.50
2022-08-26T07:49:52.682Z,9.15
2022-08-26T07:50:54.896Z,8.43
2022-08-26T07:51:58.901Z,7.60
2022-08-26T07:53:02.760Z,8.50
2022-08-26T07:54:06.217Z,7.43
2022-08-26T07:55:10.707Z,7.75
2022-08-26T07:56:12.814Z,8.43
2022-08-26T07:57:15.955Z,8.02
2022-08-26T07:58:21.253Z,8.20
2022-08-26T07:59:24.936Z,8.73
2022-08-26T08:00:27.900Z,7.97
2022-08-26T08:01:31.653Z,8.25
2022-08-26T08:02:36.472Z,7.50
2022-08-26T08:03:40.536Z,8.20
2022-08-26T08:04:42.515Z,8.40
2022-08-26T08:05:46.352Z,8.20
2022-08-26T08:06:48.886Z,7.22
2022-08-26T08:07:53.486Z,8.48
2022-08-26T08:08:57.420Z,7.70
2022-08-26T08:10:00.420Z,9.43
2022-08-26T08:11:03.292Z,7.95
2022-08-26T08:12:09.433Z,7.40
2022-08-26T08:13:16.678Z,7.00
2022-08-26T08:14:22.109Z,8.05
2022-08-26T08:15:27.960Z,7.50
2022-08-26T08:16:32.201Z,7.65
2022-08-26T08:17:35.619Z,7.40
2022-08-26T08:18:38.858Z,7.28
2022-08-26T08:19:43.561Z,8.30
2022-08-26T08:20:59.138Z,7.75
2022-08-26T08:22:17.809Z,7.97
2022-08-26T08:23:22.984Z,7.15
2022-08-26T08:24:28.656Z,7.97
2022-08-26T08:25:31.548Z,8.05
2022-08-26T08:26:35.368Z,8.07
2022-08-26T08:27:39.894Z,7.63
2022-08-26T08:28:43.356Z,8.55
2022-08-26T08:29:47.083Z,7.85
2022-08-26T08:30:50.842Z,7.90
2022-08-26T08:31:58.304Z,7.05
2022-08-26T08:33:00.703Z,7.65
2022-08-26T08:34:04.025Z,8.20
2022-08-26T08:35:11.574Z,7.75
2022-08-26T08:36:18.591Z,7.50
2022-08-26T08:37:23.888Z,8.73
2022-08-26T08:38:26.598Z,7.15
2022-08-26T08:39:32.995Z,8.38
2022-08-26T08:40:40.233Z,7.30
2022-08-26T08:41:54.739Z,8.00
2022-08-26T08:42:59.863Z,8.07
2022-08-26T08:44:04.130Z,8.55
2022-08-26T08:45:15.407Z,7.72
2022-08-26T08:46:20.178Z,8.13
2022-08-26T08:47:29.585Z,6.90
2022-08-26T08:48:36.665Z,8.55
2022-08-26T08:49:38.707Z,8.85
2022-08-26T08:50:45.914Z,8.25
2022-08-26T08:51:52.282Z,8.27
2022-08-26T08:53:08.810Z,7.97
2022-08-26T08:54:12.207Z,7.90
2022-08-26T08:55:18.289Z,9.27
2022-08-26T08:56:29.963Z,7.97
2022-08-26T08:57:45.277Z,8.60
2022-08-26T08:58:57.349Z,8.23
2022-08-26T09:00:06.351Z,8.35
2022-08-26T09:01:16.432Z,8.32
2022-08-26T09:02:25.658Z,8.40
2022-08-26T09:03:42.887Z,8.13
2022-08-26T09:05:06.633Z,8.80
2022-08-26T09:06:17.362Z,9.10
2022-08-26T09:07:24.547Z,8.88
2022-08-26T09:08:35.172Z,9.43
2022-08-26T09:09:40.503Z,8.55
2022-08-26T09:10:47.197Z,8.38
2022-08-26T09:11:49.707Z,9.00
2022-08-26T09:12:54.264Z,8.50
2022-08-26T09:13:57.695Z,8.98
2022-08-26T09:15:06.024Z,9.52
2022-08-26T09:16:13.953Z,7.95
2022-08-26T09:17:25.807Z,8.32
2022-08-26T09:18:42.888Z,8.52
2022-08-26T09:19:53.192Z,8.00
2022-08-26T09:20:58.478Z,8.70
2022-08-26T09:22:07.006Z,10.23
2022-08-26T09:23:11.432Z,9.02
2022-08-26T09:24:14.473Z,7.97
2022-08-26T09:25:20.099Z,8.63
2022-08-26T09:26:29.224Z,8.55
2022-08-26T09:27:42.766Z,8.63
2022-08-26T09:28:48.201Z,8.02
2022-08-26T09:29:51.365Z,9.98
2022-08-26T09:31:14.688Z,8.18
2022-08-26T09:32:22.236Z,8.90
2022-08-26T09:33:28.177Z,9.50
2022-08-26T09:34:31.432Z,8.82
2022-08-26T09:35:35.977Z,9.38
2022-08-26T09:36:41.389Z,8.70
2022-08-26T09:38:55.872Z,9.35
2022-08-26T09:40:21.045Z,8.98
2022-08-26T09:41:32.109Z,8.82
2022-08-26T09:42:34.319Z,7.93
2022-08-26T09:43:37.537Z,8.80
2022-08-26T09:44:56.417Z,9.63
2022-08-26T09:46:14.411Z,9.57
2022-08-26T09:47:23.250Z,9.23
2022-08-26T09:48:30.339Z,8.52
2022-08-26T09:49:36.198Z,8.50
2022-08-26T09:50:50.248Z,8.77
2022-08-26T09:52:14.349Z,9.15
2022-08-26T09:53:28.513Z,9.05
2022-08-26T09:54:32.508Z,9.63
2022-08-26T09:55:37.219Z,8.20
2022-08-26T09:56:41.177Z,8.95
2022-08-26T09:57:49.510Z,8.40
2022-08-26T09:58:54.911Z,8.65
2022-08-26T09:59:57.421Z,8.85
2022-08-26T10:01:02.385Z,9.40
2022-08-26T10:02:20.712Z,9.00
2022-08-26T10:03:27.146Z,8.57
2022-08-26T10:04:31.229Z,9.25
2022-08-26T10:05:40.989Z,8.43
2022-08-26T10:06:54.522Z,9.38
2022-08-26T10:08:00.185Z,8.77
2022-08-26T10:09:08.293Z,9.77
2022-08-26T10:10:18.423Z,9.38
2022-08-26T10:11:30.531Z,8.90
2022-08-26T10:12:38.858Z,9.57
2022-08-26T10:13:45.947Z,9.30
2022-08-26T10:14:51.972Z,9.18
2022-08-26T10:16:02.000Z,8.95
2022-08-26T10:17:09.226Z,9.30
2022-08-26T10:18:17.594Z,8.45
2022-08-26T10:19:25.323Z,9.15
2022-08-26T10:20:52.355Z,8.60
2022-08-26T10:22:00.367Z,8.55
2022-08-26T10:23:08.080Z,8.23
2022-08-26T10:24:16.895Z,8.70
2022-08-26T10:25:24.686Z,9.25
2022-08-26T10:26:34.302Z,7.82
2022-08-26T10:27:49.615Z,8.82
2022-08-26T10:29:03.772Z,9.18
2022-08-26T10:30:12.555Z,8.52
2022-08-26T10:31:27.445Z,9.30
2022-08-26T10:32:36.190Z,7.20
2022-08-26T10:33:44.444Z,8.63
2022-08-26T10:34:46.620Z,9.95
2022-08-26T10:35:54.259Z,8.30
2022-08-26T10:37:14.316Z,9.05
2022-08-26T10:38:28.793Z,9.25
2022-08-26T10:39:38.146Z,8.75
2022-08-26T10:40:52.801Z,9.40
2022-08-26T10:42:00.084Z,8.48
2022-08-26T10:43:11.140Z,8.55
2022-08-26T10:44:18.472Z,8.95
2022-08-26T10:45:25.370Z,9.43
2022-08-26T10:46:36.203Z,8.30
2022-08-26T10:47:46.828Z,7.10
2022-08-26T10:48:57.392Z,7.93
2022-08-26T10:50:04.591Z,7.72
2022-08-26T10:51:10.420Z,7.72
2022-08-26T10:52:19.519Z,8.02
2022-08-26T10:53:29.477Z,6.80
2022-08-26T10:54:44.316Z,8.48
2022-08-26T10:55:55.252Z,7.00
2022-08-26T10:57:03.015Z,6.80
2022-08-26T10:58:26.755Z,6.80
2022-08-26T10:59:46.297Z,7.10
2022-08-26T11:01:14.434Z,7.10
2022-08-26T11:02:31.408Z,7.70
2022-08-26T11:03:40.281Z,6.43
2022-08-26T11:04:56.940Z,6.38
2022-08-26T11:06:25.775Z,5.60
2022-08-26T11:07:37.929Z,5.68
2022-08-26T11:08:46.207Z,5.57
2022-08-26T11:09:49.670Z,6.32
2022-08-26T11:10:58.006Z,6.50
2022-08-26T11:12:06.786Z,6.78
2022-08-26T11:13:14.958Z,6.35
2022-08-26T11:14:45.998Z,6.78
2022-08-26T11:16:01.086Z,5.47
2022-08-26T11:17:05.066Z,6.57
2022-08-26T11:18:10.783Z,6.25
2022-08-26T11:20:00.325Z,7.15
2022-08-26T11:21:49.409Z,7.20
2022-08-26T11:22:59.633Z,6.30
2022-08-26T11:24:02.293Z,6.55
2022-08-26T11:25:14.213Z,7.53
2022-08-26T11:26:35.862Z,6.72
2022-08-26T11:28:08.599Z,6.47
2022-08-26T11:29:13.132Z,6.97
2022-08-26T11:30:58.154Z,6.05
2022-08-26T11:32:00.656Z,6.25
2022-08-26T11:33:06.193Z,6.03
2022-08-26T11:34:14.795Z,6.35
2022-08-26T11:35:52.273Z,6.13
2022-08-26T11:37:00.438Z,6.65
2022-08-26T11:38:15.647Z,6.38
2022-08-26T11:39:24.084Z,6.15
2022-08-26T11:40:31.505Z,5.90
2022-08-26T11:41:34.571Z,6.38
2022-08-26T11:42:41.963Z,6.75
2022-08-26T11:43:49.428Z,7.30
2022-08-26T11:44:52.740Z,7.30
2022-08-26T11:46:02.184Z,6.28
2022-08-26T11:47:11.652Z,6.60
2022-08-26T11:48:19.552Z,5.97
2022-08-26T11:49:24.606Z,6.75
2022-08-26T11:50:29.821Z,6.85
2022-08-26T11:51:37.007Z,6.35
2022-08-26T11:52:51.561Z,6.57
2022-08-26T11:54:10.676Z,6.63
2022-08-26T11:55:16.179Z,6.60
2022-08-26T11:56:27.401Z,6.55
2022-08-26T11:57:41.772Z,7.45
2022-08-26T11:58:46.967Z,6.32
2022-08-26T11:59:50.054Z,5.88
2022-08-26T12:00:57.884Z,6.88
2022-08-26T12:02:02.231Z,5.78
2022-08-26T12:03:08.990Z,6.28
2022-08-26T12:04:13.981Z,5.88
2022-08-26T12:05:25.074Z,6.70
2022-08-26T12:06:32.856Z,6.78
2022-08-26T12:07:36.882Z,8.07
2022-08-26T12:08:45.115Z,6.70
2022-08-26T12:10:00.520Z,6.38
2022-08-26T12:11:09.246Z,5.60
2022-08-26T12:12:14.072Z,6.80
2022-08-26T12:13:26.235Z,6.40
2022-08-26T12:14:29.572Z,6.50
2022-08-26T12:15:35.617Z,6.05
2022-08-26T12:16:40.158Z,6.45
2022-08-26T12:17:44.742Z,6.72
2022-08-26T12:18:46.878Z,5.97
2022-08-26T12:19:49.831Z,5.93
2022-08-26T12:20:53.956Z,6.38
2022-08-26T12:22:02.186Z,6.35
2022-08-26T12:23:05.017Z,6.47
2022-08-26T12:24:09.874Z,7.35
2022-08-26T12:25:15.284Z,6.00
2022-08-26T12:26:26.446Z,6.32
2022-08-26T12:27:32.066Z,6.15
2022-08-26T12:28:44.786Z,4.90
2022-08-26T12:30:02.696Z,6.72
2022-08-26T12:31:06.471Z,7.15
2022-08-26T12:32:13.208Z,6.57
2022-08-26T12:33:22.935Z,6.60
2022-08-26T12:34:28.096Z,6.53
2022-08-26T12:35:32.261Z,7.50
2022-08-26T12:36:40.402Z,7.43
2022-08-26T12:37:47.939Z,6.75
2022-08-26T12:38:51.319Z,5.70
2022-08-26T12:39:54.493Z,5.80
2022-08-26T12:40:58.318Z,6.50
2022-08-26T12:42:03.233Z,6.10
2022-08-26T12:43:07.507Z,6.10
2022-08-26T12:44:31.332Z,6.68
2022-08-26T12:45:35.803Z,5.72
2022-08-26T12:46:41.623Z,6.68
2022-08-26T12:47:45.764Z,6.88
2022-08-26T12:48:50.268Z,6.78
2022-08-26T12:50:02.265Z,6.88
2022-08-26T12:51:07.227Z,5.85
2022-08-26T12:52:35.311Z,6.07
2022-08-26T12:53:43.275Z,6.90
2022-08-26T12:55:02.785Z,5.80
2022-08-26T12:56:22.070Z,6.68
2022-08-26T12:57:27.999Z,5.57
2022-08-26T12:58:33.168Z,6.22
2022-08-26T12:59:35.299Z,6.18
2022-08-26T13:00:42.041Z,5.63
2022-08-26T13:01:46.902Z,6.35
2022-08-26T13:02:48.901Z,6.70
2022-08-26T13:03:51.994Z,6.45
2022-08-26T13:05:00.724Z,5.88
2022-08-26T13:06:27.954Z,6.43
2022-08-26T13:07:29.992Z,5.40
2022-08-26T13:08:32.958Z,7.13
2022-08-26T13:09:37.540Z,5.75
2022-08-26T13:10:42.669Z,6.50
2022-08-26T13:12:02.244Z,6.20
2022-08-26T13:13:04.830Z,5.95
2022-08-26T13:14:10.231Z,6.05
2022-08-26T13:15:12.227Z,5.88
2022-08-26T13:16:15.453Z,6.68
2022-08-26T13:17:17.629Z,5.13
2022-08-26T13:18:20.715Z,6.93
2022-08-26T13:19:25.488Z,6.32
2022-08-26T13:20:28.754Z,5.90
2022-08-26T13:21:37.517Z,6.60
2022-08-26T13:23:49.047Z,5.40
2022-08-26T13:24:54.334Z,6.35
2022-08-26T13:25:57.250Z,5.57
2022-08-26T13:27:01.244Z,6.28
2022-08-26T13:28:04.982Z,6.68
2022-08-26T13:29:10.155Z,8.10
2022-08-26T13:30:14.589Z,6.20
2022-08-26T13:31:17.143Z,7.40
2022-08-26T13:32:22.560Z,5.90
2022-08-26T13:33:30.300Z,6.20
2022-08-26T13:34:33.318Z,5.95
2022-08-26T13:35:36.221Z,5.15
2022-08-26T13:36:38.375Z,5.32
2022-08-26T13:37:41.335Z,5.65
2022-08-26T13:38:45.021Z,5.45
2022-08-26T13:39:54.714Z,5.95
2022-08-26T13:40:59.710Z,4.93
2022-08-26T13:42:04.303Z,5.18
2022-08-26T13:43:06.518Z,4.97
2022-08-26T13:44:09.727Z,5.35
2022-08-26T13:45:12.033Z,6.53
2022-08-26T13:46:15.240Z,5.95
2022-08-26T13:47:17.730Z,5.38
2022-08-26T13:48:23.348Z,5.68
2022-08-26T13:49:26.506Z,5.55
2022-08-26T13:50:28.467Z,5.28
2022-08-26T13:51:32.385Z,6.22
2022-08-26T13:52:34.430Z,7.30
2022-08-26T13:53:37.797Z,5.18
2022-08-26T13:54:43.541Z,5.22
2022-08-26T13:55:46.691Z,5.28
2022-08-26T13:56:48.795Z,5.57
2022-08-26T13:57:55.635Z,6.15
2022-08-26T13:58:58.389Z,5.20
2022-08-26T14:00:01.571Z,6.60
2022-08-26T14:01:15.344Z,6.30
2022-08-26T14:02:18.536Z,6.00
2022-08-26T14:03:21.832Z,6.53
2022-08-26T14:04:27.253Z,5.57
2022-08-26T14:05:31.073Z,5.93
2022-08-26T14:06:33.117Z,5.85
2022-08-26T14:07:36.793Z,6.53
2022-08-26T14:08:39.003Z,6.53
2022-08-26T14:09:42.387Z,5.78
2022-08-26T14:10:44.435Z,6.15
2022-08-26T14:11:53.969Z,5.93
2022-08-26T14:12:59.410Z,6.20
2022-08-26T14:14:01.317Z,5.57
2022-08-26T14:15:05.157Z,5.80
2022-08-26T14:16:10.497Z,6.10
2022-08-26T14:17:21.324Z,6.25
2022-08-26T14:18:30.447Z,6.50
2022-08-26T14:19:34.442Z,6.28
2022-08-26T14:20:38.417Z,5.70
2022-08-26T14:21:41.507Z,6.03
2022-08-26T14:22:57.538Z,6.00
2022-08-26T14:24:08.222Z,5.15
2022-08-26T14:25:12.242Z,6.22
2022-08-26T14:26:27.720Z,5.80
2022-08-26T14:27:32.669Z,6.03
2022-08-26T14:28:36.258Z,7.05
2022-08-26T14:29:39.554Z,6.05
2022-08-26T14:30:43.492Z,5.93
2022-08-26T14:31:46.810Z,5.88
2022-08-26T14:32:53.819Z,5.75
2022-08-26T14:33:57.637Z,5.90
2022-08-26T14:35:00.766Z,5.63
2022-08-26T14:36:18.075Z,5.47
2022-08-26T14:37:21.610Z,5.20
2022-08-26T14:38:23.571Z,6.20
2022-08-26T14:39:26.564Z,5.10